Impacts METAR Board
IDs:

KSUA - Stuart/Witham Fld, FL, US

Updated at: 0100 UTC 12 May 2021
Potential Impact None Slight Moderate High
Time 11/13Z 11/14Z 11/15Z 11/16Z 11/17Z 11/18Z 11/19Z 11/20Z 11/21Z 11/22Z 11/23Z 12/00Z 12/01Z
Temp81 84 86 88 88 90 88 82 75 81 82 81 79
Dewpt72 70 68 72 70 72 72 72 70 70 72 72 72
Altim30.12 30.12 30.12 30.12 30.10 30.07 30.05 30.05 30.07 30.04 30.04 30.05 30.07
VIS10 10 10 10 10 10 7 7 7 7 7 7 7
CIG-- -- -- -- -- -- -- -- -- -- -- -- --
CoverSCTSCTSCTSCTSCTSCTSCTSCTSCTSCTSCTSCTFEW
FltCatVFRVFRVFRVFRVFRVFRVFRVFRVFRVFRVFRVFRVFR
WX------------VCSH-TSRAVCTS -RA--------
WDir0016013011010011011000120120120
WSpd0 0 4 7 10 13 14 12 6 0 8 9 4
WGst-- -- -- -- -- 18 18 18 -- -- -- -- --
Raw hourly METARs
KSUA 111250Z 00000KT 10SM SCT029 27/22 A3012
KSUA 111350Z 00000KT 10SM SCT025 29/21 A3012
KSUA 111450Z 16004KT 10SM SCT025 30/20 A3012
KSUA 111550Z 13007KT 10SM SCT033 31/22 A3012
KSUA 111648Z 11010KT 10SM SCT038 31/21 A3010
KSUA 111750Z 10013G18KT 10SM SCT040 32/22 A3007
KSUA 111847Z 11014G18KT 7SM VCSH SCT030 31/22 A3005
KSUA 111947Z 11012G18KT 7SM -TSRA SCT020 28/22 A3005 RMK TSB47 TS SW-N MOV E OCNL LTGICCG S-N
KSUA 112047Z VRB06KT 7SM -VCTSRA SCT020 24/21 A3007 RMK TSE47
KSUA 112147Z 00000KT 7SM SCT030 27/21 A3004
KSUA 112247Z 12008KT 7SM SCT030 28/22 A3004
KSUA 112347Z 12009KT 7SM SCT030 27/22 A3005
KSUA 120047Z 12004KT 7SM FEW030 26/22 A3007



Page loaded:  01:52 UTC  |   06:52 PM Pacific  |   07:52 PM Mountain  |   08:52 PM Central  |   09:52 PM Eastern

 

ADVISORIES

FORECASTS

FORECASTS

OBSERVATIONS

USER TOOLS

ABOUT US